Time;durP1;ratioP1;P1;durP2;ratioP2;P2;SDS_P1;SDS_P2;PMS_P1;PMS_P2;Temp;Humidity;BMP_temperature;BMP_pressure;BME280_temperature;BME280_humidity;BME280_pressure;Samples;Min_cycle;Max_cycle;Signal;HPM_P1;HPM_P2
2022/10/06 00:01:02;;;;;;;0.87;0.70;;;;;;;14.16;47.55;96332.78;5032258;28;20439;-69
2022/10/06 00:03:29;;;;;;;0.73;0.73;;;;;;;14.33;47.52;96336.25;5036229;28;20489;-67
2022/10/06 00:06:01;;;;;;;0.00;0.00;;;;;;;14.29;47.52;96348.31;5041724;28;21031;-67
2022/10/06 00:08:33;;;;;;;0.10;0.10;;;;;;;14.35;47.35;96342.06;5052085;28;20438;-68
2022/10/06 00:11:00;;;;;;;0.60;0.60;;;;;;;14.34;46.96;96329.94;5037882;28;20496;-69
2022/10/06 00:13:29;;;;;;;0.03;0.03;;;;;;;14.51;46.59;96338.59;5051793;28;20529;-69
2022/10/06 00:15:56;;;;;;;0.10;0.10;;;;;;;14.23;46.62;96341.34;5037653;28;20504;-67
2022/10/06 00:18:23;;;;;;;0.10;0.10;;;;;;;14.41;46.45;96337.66;5041115;28;20440;-69
2022/10/06 00:20:58;;;;;;;0.30;0.30;;;;;;;14.51;45.94;96341.22;5045845;28;20971;-67
2022/10/06 00:23:26;;;;;;;0.20;0.20;;;;;;;14.44;46.08;96337.97;5041675;28;20542;-70
2022/10/06 00:25:53;;;;;;;0.10;0.10;;;;;;;14.39;46.28;96322.09;5051700;28;20449;-68
2022/10/06 00:28:20;;;;;;;0.00;0.00;;;;;;;14.35;46.46;96331.53;5042882;28;20966;-69
2022/10/06 00:30:47;;;;;;;0.00;0.00;;;;;;;14.33;46.39;96338.88;5045132;28;20470;-68
2022/10/06 00:33:16;;;;;;;0.10;0.10;;;;;;;14.27;46.23;96326.66;5051164;28;20483;-68
2022/10/06 00:35:45;;;;;;;0.00;0.00;;;;;;;14.23;46.19;96323.69;5051456;28;20443;-67
2022/10/06 00:38:14;;;;;;;0.00;0.00;;;;;;;14.41;46.02;96330.56;5044851;28;20452;-67
2022/10/06 00:40:44;;;;;;;0.00;0.00;;;;;;;14.38;45.29;96319.69;5029561;28;20535;-68
2022/10/06 00:43:45;;;;;;;0.30;0.30;;;;;;;14.27;46.04;96318.75;5041843;28;21022;-69
2022/10/06 00:46:31;;;;;;;0.00;0.00;;;;;;;14.30;45.38;96318.28;5046169;28;20554;-66
2022/10/06 00:49:11;;;;;;;0.10;0.10;;;;;;;14.14;45.99;96311.19;5029266;28;20452;-67
2022/10/06 00:51:46;;;;;;;0.53;0.53;;;;;;;13.83;46.91;96306.50;5031847;28;20450;-69
2022/10/06 00:54:13;;;;;;;0.07;0.07;;;;;;;13.69;47.53;96321.03;5043823;28;20947;-68
2022/10/06 00:56:40;;;;;;;1.00;1.00;;;;;;;13.42;47.83;96299.00;5030061;28;21030;-69
2022/10/06 00:59:11;;;;;;;0.00;0.00;;;;;;;13.53;48.01;96306.84;5029831;28;20535;-69
2022/10/06 01:01:43;;;;;;;2.97;1.40;;;;;;;13.46;47.96;96303.56;5043610;28;20477;-68
2022/10/06 01:04:13;;;;;;;0.00;0.00;;;;;;;13.41;47.75;96300.81;5050577;28;20475;-69
2022/10/06 01:06:44;;;;;;;0.00;0.00;;;;;;;13.46;47.88;96300.13;5038903;28;20460;-68
2022/10/06 01:09:16;;;;;;;3.73;0.70;;;;;;;13.53;47.73;96296.28;5029152;28;20526;-68
2022/10/06 01:11:46;;;;;;;3.07;1.97;;;;;;;13.38;48.30;96295.22;5041025;28;20474;-68
2022/10/06 01:14:13;;;;;;;0.47;0.47;;;;;;;13.05;49.45;96288.09;5032182;28;20487;-68
2022/10/06 01:16:42;;;;;;;0.20;0.20;;;;;;;13.07;49.69;96291.28;5041124;28;20451;-69
2022/10/06 01:19:23;;;;;;;0.77;0.73;;;;;;;13.11;49.22;96290.59;5031683;28;20482;-70
2022/10/06 01:21:53;;;;;;;1.53;1.43;;;;;;;13.15;49.57;96289.09;5029232;28;20447;-67
2022/10/06 01:24:20;;;;;;;0.00;0.00;;;;;;;13.23;49.02;96278.16;5044085;28;20468;-68
2022/10/06 01:26:49;;;;;;;0.83;0.50;;;;;;;13.40;49.26;96274.72;5029415;28;20455;-67
2022/10/06 01:29:17;;;;;;;0.27;0.27;;;;;;;13.49;48.82;96275.94;5044941;28;20447;-67
2022/10/06 01:31:44;;;;;;;0.67;0.67;;;;;;;13.52;48.34;96283.38;5040777;28;20436;-67
2022/10/06 01:34:12;;;;;;;0.00;0.00;;;;;;;13.64;48.49;96276.97;5044956;28;20516;-68
2022/10/06 01:36:40;;;;;;;0.23;0.23;;;;;;;13.58;48.31;96272.66;5041981;28;20488;-67
2022/10/06 01:39:08;;;;;;;0.30;0.30;;;;;;;13.67;48.14;96275.69;5028663;28;20455;-68
2022/10/06 01:41:37;;;;;;;0.17;0.17;;;;;;;13.79;47.81;96284.31;5028635;28;20440;-67
2022/10/06 01:44:04;;;;;;;0.50;0.50;;;;;;;13.56;48.21;96279.19;5043932;28;20562;-66
2022/10/06 01:46:31;;;;;;;0.20;0.20;;;;;;;13.64;47.85;96270.91;5038661;28;20534;-68
2022/10/06 01:48:58;;;;;;;0.47;0.47;;;;;;;13.61;47.83;96276.66;5048306;28;20474;-68
2022/10/06 01:51:25;;;;;;;0.97;0.97;;;;;;;13.56;48.32;96279.19;5036062;28;20821;-69
2022/10/06 01:53:52;;;;;;;0.10;0.10;;;;;;;13.58;47.83;96272.66;5048356;28;20438;-68
2022/10/06 01:56:20;;;;;;;5.30;2.30;;;;;;;13.53;47.87;96280.50;5048322;28;20446;-67
2022/10/06 01:58:47;;;;;;;0.77;0.77;;;;;;;13.67;48.15;96278.31;5032218;28;20526;-67
2022/10/06 02:01:15;;;;;;;0.10;0.10;;;;;;;13.25;48.66;96271.88;5037861;28;20443;-68
2022/10/06 02:03:42;;;;;;;0.10;0.10;;;;;;;13.10;49.16;96280.31;5033825;28;20990;-66
2022/10/06 02:06:09;;;;;;;1.10;0.73;;;;;;;13.27;49.20;96275.84;5049864;28;20534;-68
2022/10/06 02:08:36;;;;;;;2.53;1.20;;;;;;;13.35;48.42;96272.84;5033985;28;21049;-67
2022/10/06 02:11:08;;;;;;;0.77;0.77;;;;;;;13.55;47.94;96280.25;5048269;28;20535;-67
2022/10/06 02:13:39;;;;;;;0.20;0.20;;;;;;;13.37;48.19;96283.94;5049605;28;20964;-66
2022/10/06 02:16:09;;;;;;;0.00;0.00;;;;;;;13.13;48.73;96279.81;5043322;28;20444;-67
2022/10/06 02:18:36;;;;;;;0.20;0.20;;;;;;;13.18;48.25;96283.34;5028190;28;20444;-68
2022/10/06 02:21:04;;;;;;;0.17;0.17;;;;;;;12.95;49.32;96278.19;5048175;28;20450;-67
2022/10/06 02:23:31;;;;;;;0.03;0.03;;;;;;;13.19;48.73;96277.03;5036738;28;20507;-68
2022/10/06 02:26:00;;;;;;;0.00;0.00;;;;;;;12.93;49.19;96267.09;5027681;28;20919;-68
2022/10/06 02:28:28;;;;;;;2.63;1.13;;;;;;;13.06;49.12;96279.97;5037556;28;20451;-68
2022/10/06 02:31:06;;;;;;;0.80;0.80;;;;;;;13.10;48.75;96270.56;5033748;28;20448;-68
2022/10/06 02:33:36;;;;;;;1.20;1.00;;;;;;;13.12;48.59;96257.97;5038174;28;20871;-66
2022/10/06 02:36:10;;;;;;;0.00;0.00;;;;;;;13.26;48.17;96263.72;5028186;28;21024;-67
2022/10/06 02:38:38;;;;;;;1.47;1.13;;;;;;;13.25;48.26;96274.50;5029335;28;20800;-68
2022/10/06 02:41:07;;;;;;;4.53;1.20;;;;;;;13.26;48.17;96279.53;5033939;28;21134;-67
2022/10/06 02:43:35;;;;;;;0.80;0.80;;;;;;;13.24;48.03;96268.44;5048817;28;20494;-67
2022/10/06 02:46:05;;;;;;;2.60;1.73;;;;;;;13.25;47.75;96271.88;5047426;28;20883;-67
2022/10/06 02:48:34;;;;;;;1.17;0.53;;;;;;;13.18;48.03;96285.97;5034843;28;20450;-69
2022/10/06 02:51:06;;;;;;;0.10;0.10;;;;;;;13.04;48.71;96287.31;5033744;28;20464;-67
2022/10/06 02:53:36;;;;;;;0.77;0.77;;;;;;;12.97;49.18;96278.72;5043070;28;20446;-67
2022/10/06 02:56:18;;;;;;;0.37;0.37;;;;;;;13.18;48.13;96287.81;5048883;28;21053;-67
2022/10/06 02:58:49;;;;;;;0.33;0.33;;;;;;;13.25;47.96;96279.78;5047377;28;20496;-68
2022/10/06 03:01:27;;;;;;;0.13;0.13;;;;;;;13.33;47.95;96289.91;5047599;28;20443;-68
2022/10/06 03:03:58;;;;;;;0.10;0.10;;;;;;;13.27;47.91;96296.91;5047433;28;20489;-67
2022/10/06 03:06:28;;;;;;;0.10;0.10;;;;;;;13.27;48.16;96285.56;5038606;28;20487;-68
2022/10/06 03:09:17;;;;;;;0.37;0.33;;;;;;;13.22;47.96;96281.03;5027488;28;20435;-68
2022/10/06 03:11:45;;;;;;;0.50;0.50;;;;;;;13.19;48.03;96289.41;5027605;28;20931;-67
2022/10/06 03:14:18;;;;;;;0.60;0.60;;;;;;;13.09;48.29;96282.13;5048058;28;20439;-67
2022/10/06 03:16:53;;;;;;;2.27;0.93;;;;;;;13.10;48.35;96280.31;5036249;28;20440;-67
2022/10/06 03:19:24;;;;;;;0.10;0.10;;;;;;;13.19;47.99;96277.03;5033633;28;20917;-67
2022/10/06 03:21:52;;;;;;;0.37;0.37;;;;;;;13.14;47.80;96284.84;5047313;28;20958;-66
2022/10/06 03:24:23;;;;;;;0.47;0.47;;;;;;;13.35;47.39;96282.56;5043647;28;20467;-68
2022/10/06 03:26:54;;;;;;;0.23;0.23;;;;;;;13.23;47.71;96273.94;5038258;28;20442;-69
2022/10/06 03:29:21;;;;;;;0.20;0.20;;;;;;;13.14;47.80;96266.44;5047143;28;20526;-69
2022/10/06 03:31:52;;;;;;;0.37;0.20;;;;;;;13.21;47.91;96279.41;5037861;28;20539;-69
2022/10/06 03:34:19;;;;;;;0.10;0.10;;;;;;;13.19;47.70;96282.28;5028564;28;20439;-70
2022/10/06 03:36:46;;;;;;;0.40;0.40;;;;;;;13.16;47.26;96280.16;5027115;28;20438;-69
2022/10/06 03:39:16;;;;;;;2.00;1.77;;;;;;;13.00;48.33;96273.00;5010970;28;20439;-69
2022/10/06 03:41:43;;;;;;;0.00;0.00;;;;;;;13.05;48.18;96274.94;5027162;28;20440;-70
2022/10/06 03:44:10;;;;;;;0.10;0.10;;;;;;;13.09;47.79;96279.50;5031357;28;20482;-68
2022/10/06 03:46:40;;;;;;;0.37;0.37;;;;;;;12.99;48.21;96271.38;5036413;28;20455;-69
2022/10/06 03:49:07;;;;;;;0.40;0.40;;;;;;;12.87;47.96;96246.19;5027192;28;20498;-68
2022/10/06 03:51:37;;;;;;;0.00;0.00;;;;;;;13.01;48.67;96277.22;5027193;28;20535;-70
2022/10/06 03:54:09;;;;;;;0.00;0.00;;;;;;;12.87;48.95;96275.91;5027226;28;20440;-70
2022/10/06 03:56:40;;;;;;;0.00;0.00;;;;;;;13.06;48.14;96266.03;5043019;28;20538;-69
2022/10/06 03:59:12;;;;;;;0.00;0.00;;;;;;;12.94;48.29;96275.75;5030777;28;21050;-69
2022/10/06 04:01:44;;;;;;;0.07;0.07;;;;;;;13.01;48.91;96277.22;5031059;28;20478;-69
2022/10/06 04:04:13;;;;;;;0.10;0.10;;;;;;;13.11;48.00;96264.28;5041378;28;20483;-70
2022/10/06 04:06:43;;;;;;;0.37;0.30;;;;;;;12.94;48.35;96265.22;5041187;28;20539;-70
2022/10/06 04:09:16;;;;;;;0.20;0.20;;;;;;;13.02;48.20;96268.34;5033236;28;20454;-71
2022/10/06 04:11:44;;;;;;;0.30;0.30;;;;;;;13.02;48.21;96263.06;5037012;28;20446;-69
2022/10/06 04:14:14;;;;;;;0.10;0.10;;;;;;;13.03;48.52;96275.19;5046706;28;20443;-70
2022/10/06 04:16:45;;;;;;;9.97;2.53;;;;;;;12.88;48.71;96266.97;5052343;28;20450;-69
2022/10/06 04:19:15;;;;;;;0.10;0.10;;;;;;;12.93;48.63;96277.63;5030333;28;20774;-71
2022/10/06 04:21:47;;;;;;;0.13;0.13;;;;;;;12.96;48.38;96269.25;5031917;28;20444;-68
2022/10/06 04:24:17;;;;;;;0.27;0.27;;;;;;;12.88;48.66;96277.50;5040982;28;21012;-69
2022/10/06 04:26:51;;;;;;;0.63;0.57;;;;;;;12.88;48.54;96269.59;5047950;28;20438;-70
2022/10/06 04:29:19;;;;;;;0.90;0.87;;;;;;;12.88;48.18;96272.25;5053059;28;20458;-68
2022/10/06 04:31:53;;;;;;;0.40;0.40;;;;;;;12.72;49.17;96278.25;5047559;28;20449;-69
2022/10/06 04:34:32;;;;;;;0.20;0.20;;;;;;;12.73;48.63;96274.63;5040650;28;20451;-70
2022/10/06 04:36:59;;;;;;;1.23;0.77;;;;;;;12.65;48.86;96287.31;5033522;28;20522;-71
2022/10/06 04:39:26;;;;;;;3.50;2.77;;;;;;;12.54;49.07;96286.31;5030100;28;20978;-71
2022/10/06 04:41:54;;;;;;;0.20;0.20;;;;;;;12.69;49.04;96291.88;5032568;28;20432;-69
2022/10/06 04:44:25;;;;;;;9.40;6.60;;;;;;;12.89;48.76;96289.63;5036033;28;20494;-71
2022/10/06 04:46:54;;;;;;;1.73;1.63;;;;;;;13.00;48.21;96283.53;5036985;28;20440;-67
2022/10/06 04:49:22;;;;;;;2.17;2.07;;;;;;;12.91;48.71;96295.47;5028843;28;20536;-67
2022/10/06 04:51:51;;;;;;;0.33;0.33;;;;;;;12.97;48.22;96286.59;5015314;28;20452;-70
2022/10/06 04:54:18;;;;;;;0.27;0.27;;;;;;;12.91;48.49;96292.03;5049438;28;20443;-72
2022/10/06 04:56:49;;;;;;;0.80;0.80;;;;;;;12.92;48.24;96299.69;5048855;28;20461;-69
2022/10/06 04:59:19;;;;;;;2.67;1.47;;;;;;;13.01;48.28;96293.00;5041641;28;20823;-71
2022/10/06 05:01:47;;;;;;;2.00;1.33;;;;;;;12.93;48.07;96282.06;5029142;28;20453;-72
2022/10/06 05:04:14;;;;;;;0.53;0.53;;;;;;;12.94;48.09;96297.63;5029394;28;20502;-68
2022/10/06 05:06:41;;;;;;;0.60;0.60;;;;;;;12.90;48.50;96293.84;5030903;28;20838;-69
2022/10/06 05:09:12;;;;;;;0.67;0.63;;;;;;;12.95;48.71;96308.94;5029059;28;20443;-70
2022/10/06 05:11:45;;;;;;;1.50;1.23;;;;;;;12.92;48.62;96306.75;5029480;28;20439;-69
2022/10/06 05:14:14;;;;;;;1.27;1.07;;;;;;;12.92;48.98;96304.94;5043432;28;20440;-69
2022/10/06 05:16:44;;;;;;;0.43;0.43;;;;;;;13.00;48.76;96301.94;5028594;28;20443;-69
2022/10/06 05:19:12;;;;;;;0.20;0.20;;;;;;;13.02;48.66;96294.66;5032491;28;20443;-70
2022/10/06 05:21:39;;;;;;;0.10;0.10;;;;;;;13.03;48.33;96304.13;5041184;28;20966;-69
2022/10/06 05:24:09;;;;;;;0.73;0.73;;;;;;;13.05;48.84;96304.69;5031509;28;20491;-69
2022/10/06 05:26:37;;;;;;;0.80;0.40;;;;;;;13.14;48.79;96300.63;5040707;28;20595;-68
2022/10/06 05:29:07;;;;;;;1.07;0.93;;;;;;;13.26;48.51;96299.78;5029203;28;20935;-67
2022/10/06 05:31:37;;;;;;;2.80;1.40;;;;;;;13.27;48.45;96296.09;5036204;28;20524;-67
2022/10/06 05:34:06;;;;;;;0.30;0.30;;;;;;;13.37;48.63;96296.28;5035128;28;20444;-66
2022/10/06 05:36:33;;;;;;;0.20;0.20;;;;;;;13.28;48.86;96302.97;5028708;28;20844;-65
2022/10/06 05:39:02;;;;;;;0.60;0.60;;;;;;;13.10;49.18;96296.88;5027799;28;20448;-65
2022/10/06 05:41:36;;;;;;;0.63;0.53;;;;;;;13.20;48.72;96296.25;5042914;28;20521;-64
2022/10/06 05:44:07;;;;;;;0.73;0.73;;;;;;;13.43;48.37;96290.06;5040563;28;20906;-65
2022/10/06 05:46:36;;;;;;;8.50;1.37;;;;;;;13.61;48.68;96289.84;5025749;28;20958;-64
2022/10/06 05:49:08;;;;;;;0.30;0.30;;;;;;;13.73;48.38;96295.81;5043538;28;20508;-66
2022/10/06 05:51:40;;;;;;;0.40;0.40;;;;;;;13.86;48.67;96296.28;5032624;28;20440;-65
2022/10/06 05:54:19;;;;;;;1.40;1.07;;;;;;;13.98;48.30;96291.69;5046554;28;20431;-64
2022/10/06 05:56:45;;;;;;;0.33;0.33;;;;;;;14.02;48.44;96292.00;5045584;28;20492;-66
2022/10/06 05:59:12;;;;;;;0.10;0.10;;;;;;;14.08;48.16;96306.88;5027593;28;20937;-66
2022/10/06 06:01:41;;;;;;;0.40;0.40;;;;;;;14.31;47.96;96306.66;5028391;28;20447;-65
2022/10/06 06:04:21;;;;;;;2.93;1.20;;;;;;;14.28;47.83;96301.91;5028503;28;20606;-65
2022/10/06 06:06:51;;;;;;;0.23;0.23;;;;;;;14.44;47.80;96308.97;5029911;28;20479;-64
2022/10/06 06:09:21;;;;;;;0.10;0.10;;;;;;;14.55;47.39;96310.69;5048401;28;20482;-65
2022/10/06 06:11:54;;;;;;;0.10;0.10;;;;;;;14.63;47.57;96302.34;5035969;28;21018;-65
2022/10/06 06:17:33;;;;;;;0.20;0.20;;;;;;;14.67;47.50;96292.88;5042263;28;20436;-66
2022/10/06 06:20:02;;;;;;;0.20;0.20;;;;;;;14.91;47.70;96312.69;5028085;28;20945;-65
2022/10/06 06:22:29;;;;;;;0.23;0.23;;;;;;;14.99;46.12;96301.69;5027831;28;20436;-65
2022/10/06 06:24:57;;;;;;;0.00;0.00;;;;;;;14.99;46.38;96299.06;5033333;28;20591;-65
2022/10/06 06:27:25;;;;;;;0.40;0.40;;;;;;;15.09;45.74;96304.41;5042354;28;20508;-65
2022/10/06 06:29:52;;;;;;;0.57;0.57;;;;;;;15.11;45.12;96307.59;5046955;28;20439;-66
2022/10/06 06:32:19;;;;;;;1.10;1.00;;;;;;;15.02;45.77;96319.66;5048122;28;20490;-65
2022/10/06 06:34:47;;;;;;;0.20;0.20;;;;;;;15.04;46.14;96309.66;5047940;28;20447;-64
2022/10/06 06:37:14;;;;;;;0.20;0.20;;;;;;;15.29;46.08;96305.66;5049296;28;21012;-66
2022/10/06 06:39:44;;;;;;;0.93;0.83;;;;;;;15.35;45.58;96307.28;5047569;28;20527;-64
2022/10/06 06:42:11;;;;;;;0.20;0.20;;;;;;;15.33;45.60;96309.41;5032541;28;20550;-63
2022/10/06 06:44:39;;;;;;;1.17;1.07;;;;;;;15.51;45.79;96309.06;5037398;28;20597;-63
2022/10/06 06:47:22;;;;;;;1.70;1.13;;;;;;;15.61;45.68;96317.06;5033424;28;20443;-64
2022/10/06 06:49:54;;;;;;;0.17;0.17;;;;;;;15.60;46.46;96310.97;5037557;28;20443;-64
2022/10/06 06:52:24;;;;;;;0.30;0.30;;;;;;;15.66;46.23;96311.81;5027705;28;20489;-65
2022/10/06 06:54:53;;;;;;;0.30;0.30;;;;;;;15.69;46.80;96306.03;5027864;28;20513;-64
2022/10/06 06:57:20;;;;;;;0.60;0.60;;;;;;;15.82;46.00;96295.81;5029041;28;20436;-64
2022/10/06 06:59:51;;;;;;;0.53;0.43;;;;;;;15.77;45.64;96297.63;5027886;28;20440;-63
2022/10/06 07:02:18;;;;;;;0.33;0.33;;;;;;;15.99;45.50;96293.03;5032183;28;20444;-63
2022/10/06 07:04:47;;;;;;;0.30;0.30;;;;;;;16.27;45.09;96297.97;5037673;28;20483;-63
2022/10/06 07:07:15;;;;;;;0.30;0.30;;;;;;;16.38;44.40;96294.31;5030403;28;20509;-64
2022/10/06 07:09:43;;;;;;;0.73;0.73;;;;;;;16.37;44.46;96290.06;5039612;28;20448;-63
2022/10/06 07:12:11;;;;;;;0.23;0.23;;;;;;;16.43;44.83;96294.34;5029117;28;20472;-64
2022/10/06 07:26:10;;;;;;;0.67;0.67;;;;;;;16.43;44.24;96285.59;5041407;28;20505;-63
2022/10/06 07:28:37;;;;;;;0.33;0.33;;;;;;;16.74;43.97;96280.22;5038070;28;20443;-64
2022/10/06 07:31:05;;;;;;;0.43;0.43;;;;;;;16.87;44.09;96279.72;5047360;28;20431;-65
2022/10/06 07:33:32;;;;;;;0.33;0.33;;;;;;;16.96;44.44;96274.69;5048813;28;20439;-63
2022/10/06 07:36:03;;;;;;;0.67;0.67;;;;;;;16.68;43.24;96249.47;5029187;28;20444;-64
2022/10/06 07:38:31;;;;;;;0.37;0.37;;;;;;;16.68;43.51;96273.28;5038820;28;20840;-64
2022/10/06 07:40:59;;;;;;;0.43;0.40;;;;;;;16.93;43.89;96276.00;5040088;28;21143;-65
2022/10/06 07:43:52;;;;;;;0.47;0.47;;;;;;;17.24;43.08;96272.34;5046607;28;20447;-64
2022/10/06 07:46:19;;;;;;;0.67;0.63;;;;;;;17.37;43.20;96264.97;5042630;28;20842;-64
2022/10/06 07:48:55;;;;;;;0.50;0.50;;;;;;;17.50;42.92;96275.09;5032652;28;20440;-63
2022/10/06 07:51:23;;;;;;;0.63;0.50;;;;;;;17.55;41.76;96272.44;5040550;28;21040;-64
2022/10/06 07:53:50;;;;;;;0.10;0.10;;;;;;;17.70;42.21;96269.78;5031103;28;20543;-63
2022/10/06 07:56:23;;;;;;;0.40;0.40;;;;;;;17.93;41.90;96272.66;5047335;28;20513;-63
2022/10/06 07:58:54;;;;;;;0.73;0.70;;;;;;;18.04;41.31;96276.09;5034960;28;20881;-65
2022/10/06 08:01:24;;;;;;;0.33;0.33;;;;;;;18.07;41.18;96270.22;5052280;28;20516;-63
2022/10/06 08:03:51;;;;;;;0.43;0.40;;;;;;;18.41;41.71;96267.75;5052319;28;20506;-63
2022/10/06 08:06:18;;;;;;;4.13;1.63;;;;;;;18.40;41.71;96268.81;5052196;28;20447;-64
2022/10/06 08:08:47;;;;;;;0.13;0.13;;;;;;;18.62;41.20;96272.75;5035085;28;20482;-63
2022/10/06 08:11:21;;;;;;;0.10;0.10;;;;;;;18.63;41.13;96274.31;5040544;28;20466;-63
2022/10/06 08:13:50;;;;;;;0.20;0.20;;;;;;;18.61;41.51;96263.19;5037699;28;20436;-63
2022/10/06 08:16:19;;;;;;;0.10;0.10;;;;;;;19.12;40.92;96261.84;5050702;28;20963;-63
2022/10/06 08:18:52;;;;;;;0.17;0.17;;;;;;;19.18;40.39;96265.25;5036659;28;20443;-64
2022/10/06 08:21:24;;;;;;;0.27;0.27;;;;;;;19.41;40.09;96269.13;5032230;28;20431;-62
2022/10/06 08:23:52;;;;;;;0.53;0.53;;;;;;;19.32;39.97;96260.16;5031266;28;20451;-64
2022/10/06 08:26:21;;;;;;;0.93;0.53;;;;;;;19.53;39.50;96258.94;5031682;28;20440;-63
2022/10/06 08:28:51;;;;;;;1.40;0.97;;;;;;;19.66;39.65;96255.63;5043669;28;20542;-62
2022/10/06 08:31:21;;;;;;;0.77;0.63;;;;;;;19.41;38.83;96253.19;5037200;28;20498;-64
2022/10/06 08:33:53;;;;;;;0.23;0.23;;;;;;;18.97;39.20;96259.31;5051422;28;20446;-63
2022/10/06 08:36:22;;;;;;;0.70;0.70;;;;;;;18.59;39.95;96256.56;5032815;28;20450;-64
2022/10/06 08:38:55;;;;;;;0.30;0.30;;;;;;;18.48;39.77;96255.81;5042978;28;20442;-64
2022/10/06 08:41:34;;;;;;;0.33;0.33;;;;;;;19.07;39.89;96253.91;5041933;28;21176;-63
2022/10/06 08:44:06;;;;;;;0.93;0.93;;;;;;;19.21;39.80;96251.44;5044596;28;20518;-63
2022/10/06 08:46:43;;;;;;;1.53;0.97;;;;;;;19.61;39.22;96243.19;5041693;28;21025;-64
2022/10/06 08:49:17;;;;;;;2.53;0.97;;;;;;;20.09;39.44;96238.72;5033329;28;20486;-63
2022/10/06 08:52:40;;;;;;;0.90;0.83;;;;;;;20.40;37.75;96236.56;5031195;28;20451;-64
2022/10/06 08:55:25;;;;;;;0.63;0.63;;;;;;;20.14;37.73;96236.03;5048732;28;20800;-65
2022/10/06 08:58:10;;;;;;;0.13;0.13;;;;;;;20.73;37.71;96236.38;5051632;28;20435;-63
2022/10/06 09:00:37;;;;;;;2.17;1.13;;;;;;;20.52;38.16;96236.94;5051685;28;20453;-62
2022/10/06 09:03:06;;;;;;;0.40;0.40;;;;;;;20.79;37.15;96237.91;5051267;28;20439;-64
2022/10/06 09:05:33;;;;;;;0.80;0.80;;;;;;;20.41;36.56;96235.47;5051186;28;21031;-63
2022/10/06 09:08:00;;;;;;;4.67;0.93;;;;;;;21.17;36.67;96230.75;5042165;28;20492;-63
2022/10/06 09:10:49;;;;;;;0.40;0.40;;;;;;;21.35;36.28;96223.81;5046514;28;20864;-64
2022/10/06 09:13:21;;;;;;;0.10;0.10;;;;;;;21.56;35.25;96225.88;5050966;28;20953;-63
2022/10/06 09:15:58;;;;;;;0.30;0.30;;;;;;;21.66;35.85;96225.69;5047643;28;20440;-64
2022/10/06 09:18:35;;;;;;;0.50;0.50;;;;;;;21.37;34.92;96221.66;5030955;28;20530;-63
2022/10/06 09:21:33;;;;;;;0.37;0.37;;;;;;;20.83;34.95;96222.94;5037820;28;20954;-63
2022/10/06 09:24:06;;;;;;;0.73;0.73;;;;;;;21.59;34.26;96213.81;5049715;28;20450;-64
2022/10/06 09:26:33;;;;;;;0.70;0.70;;;;;;;21.73;35.23;96219.97;5038882;28;20542;-65
2022/10/06 09:29:00;;;;;;;0.10;0.10;;;;;;;21.57;33.92;96218.66;5036491;28;20446;-64
2022/10/06 09:31:30;;;;;;;1.30;0.70;;;;;;;21.75;34.22;96215.16;5036964;28;20537;-65
2022/10/06 09:34:17;;;;;;;0.40;0.40;;;;;;;21.53;33.94;96209.66;5050496;28;20447;-64
2022/10/06 09:36:59;;;;;;;0.93;0.90;;;;;;;21.04;34.78;96197.59;5037206;28;20832;-65
2022/10/06 09:39:35;;;;;;;0.50;0.50;;;;;;;21.28;34.77;96196.72;5035931;28;21014;-65
2022/10/06 09:42:12;;;;;;;0.37;0.37;;;;;;;21.94;33.89;96184.66;5035552;28;20794;-66
2022/10/06 09:44:50;;;;;;;0.47;0.47;;;;;;;21.79;34.43;96202.81;5038277;28;21096;-63
2022/10/06 09:47:33;;;;;;;0.60;0.60;;;;;;;22.67;34.36;96197.91;5034235;28;20439;-64
2022/10/06 09:50:03;;;;;;;0.30;0.30;;;;;;;23.21;34.19;96196.16;5039387;28;20451;-64
2022/10/06 09:52:30;;;;;;;0.73;0.73;;;;;;;23.08;33.70;96174.50;5037697;28;21128;-65
2022/10/06 09:55:10;;;;;;;0.53;0.53;;;;;;;23.53;33.77;96177.22;5050440;28;20442;-64
2022/10/06 09:57:38;;;;;;;0.63;0.63;;;;;;;23.73;33.76;96176.69;5030150;28;20443;-64
2022/10/06 10:00:28;;;;;;;0.70;0.70;;;;;;;23.66;32.33;96171.00;5044026;28;20546;-64
2022/10/06 10:03:02;;;;;;;0.40;0.40;;;;;;;23.49;32.87;96176.25;5039278;28;20235;-64
2022/10/06 10:05:32;;;;;;;0.47;0.47;;;;;;;23.86;32.55;96171.28;5051156;28;20663;-64
2022/10/06 10:08:02;;;;;;;0.10;0.10;;;;;;;24.10;32.87;96170.91;5040481;28;21001;-66
2022/10/06 10:10:29;;;;;;;0.50;0.50;;;;;;;24.00;31.51;96161.28;5029651;28;20228;-64
2022/10/06 10:12:58;;;;;;;0.37;0.37;;;;;;;24.26;31.14;96168.59;5038071;28;20192;-64
2022/10/06 10:15:30;;;;;;;0.37;0.37;;;;;;;23.82;31.82;96154.22;5049719;28;20231;-65
2022/10/06 10:18:02;;;;;;;0.43;0.43;;;;;;;23.99;31.26;96158.88;5050059;28;20200;-66
2022/10/06 10:20:35;;;;;;;0.47;0.47;;;;;;;24.07;30.55;96155.44;5036142;28;20205;-64
2022/10/06 10:23:08;;;;;;;0.20;0.20;;;;;;;24.40;30.63;96153.97;5036357;28;20650;-64
2022/10/06 10:25:35;;;;;;;39.50;1.40;;;;;;;24.47;30.67;96151.63;5035981;28;20343;-64
2022/10/06 10:28:16;;;;;;;0.43;0.40;;;;;;;24.50;30.26;96159.06;5029552;28;20257;-65
2022/10/06 10:30:54;;;;;;;0.60;0.33;;;;;;;23.86;29.18;96143.69;5043659;28;20208;-65
2022/10/06 10:33:49;;;;;;;0.47;0.43;;;;;;;23.56;28.68;96145.28;5049495;28;20689;-64
2022/10/06 10:36:48;;;;;;;0.40;0.40;;;;;;;23.89;29.36;96148.44;5035871;28;20228;-64
2022/10/06 10:39:29;;;;;;;1.70;0.87;;;;;;;24.18;28.72;96132.66;5035127;28;20633;-63
2022/10/06 10:42:01;;;;;;;0.83;0.80;;;;;;;24.51;29.13;96139.19;5035669;28;20684;-63
2022/10/06 10:44:36;;;;;;;0.57;0.57;;;;;;;24.57;29.10;96131.78;5048650;28;20661;-65
2022/10/06 10:47:27;;;;;;;0.27;0.27;;;;;;;24.68;29.05;96131.16;5049270;28;20207;-64
2022/10/06 10:50:16;;;;;;;0.50;0.50;;;;;;;24.66;28.82;96125.34;5028770;28;20303;-63
2022/10/06 10:52:47;;;;;;;1.70;1.57;;;;;;;24.40;25.53;96110.31;5036919;28;20299;-64
2022/10/06 10:55:20;;;;;;;1.10;0.97;;;;;;;25.00;26.90;96111.94;5049098;28;20205;-63
2022/10/06 10:57:49;;;;;;;0.10;0.10;;;;;;;24.86;26.50;96108.66;5048904;28;20201;-65
2022/10/06 11:00:19;;;;;;;0.63;0.63;;;;;;;25.09;26.88;96104.69;5048465;28;20226;-64
2022/10/06 11:02:46;;;;;;;0.23;0.23;;;;;;;25.17;27.20;96102.31;5041436;28;20197;-65
2022/10/06 11:08:25;;;;;;;0.10;0.10;;;;;;;25.57;27.84;96106.34;5040871;28;20200;-63
2022/10/06 11:10:57;;;;;;;1.67;1.03;;;;;;;25.54;25.54;96096.25;5043945;28;20250;-65
2022/10/06 11:13:36;;;;;;;0.73;0.40;;;;;;;25.78;24.49;96091.13;5040501;28;20876;-64
2022/10/06 11:16:21;;;;;;;0.10;0.10;;;;;;;24.91;24.42;96091.59;5054610;28;20192;-63
2022/10/06 11:19:13;;;;;;;0.43;0.43;;;;;;;25.55;24.17;96079.03;5055207;28;20227;-64
2022/10/06 11:21:58;;;;;;;0.50;0.50;;;;;;;25.89;23.62;96082.34;5035550;28;20193;-64
2022/10/06 11:24:43;;;;;;;0.30;0.30;;;;;;;25.95;23.99;96075.69;5035250;28;20304;-64
2022/10/06 11:27:51;;;;;;;0.40;0.33;;;;;;;26.24;22.33;96077.63;5034263;28;20200;-64
2022/10/06 11:30:19;;;;;;;0.43;0.43;;;;;;;26.20;22.66;96068.66;5035147;28;20336;-63
2022/10/06 11:33:20;;;;;;;0.60;0.60;;;;;;;26.28;22.61;96067.00;5035229;28;20559;-64
2022/10/06 11:35:48;;;;;;;0.20;0.20;;;;;;;26.54;22.06;96064.91;5049155;28;20196;-63
2022/10/06 11:38:29;;;;;;;0.40;0.40;;;;;;;26.69;24.18;96056.31;5035455;28;20621;-65
2022/10/06 11:41:20;;;;;;;0.40;0.40;;;;;;;26.70;20.81;96061.34;5043639;28;20204;-64
2022/10/06 11:44:12;;;;;;;0.17;0.17;;;;;;;26.99;22.62;96055.84;5050876;28;20610;-65
2022/10/06 11:47:05;;;;;;;2.53;1.03;;;;;;;27.38;22.35;96045.66;5055167;28;20298;-65
2022/10/06 11:49:52;;;;;;;0.23;0.20;;;;;;;27.38;23.25;96041.09;5055137;28;20247;-64
2022/10/06 11:52:19;;;;;;;4.13;1.23;;;;;;;27.88;23.42;96030.78;5035581;28;20247;-63
2022/10/06 11:54:53;;;;;;;0.20;0.20;;;;;;;27.80;22.88;96036.28;5047310;28;20204;-66
2022/10/06 11:57:22;;;;;;;0.33;0.33;;;;;;;27.82;23.01;96039.44;5036072;28;20209;-66
2022/10/06 12:00:04;;;;;;;0.20;0.20;;;;;;;27.75;22.22;96033.81;5047876;28;20200;-64
2022/10/06 12:02:34;;;;;;;0.77;0.77;;;;;;;28.15;22.35;96029.34;5048898;28;20205;-64
2022/10/06 12:05:19;;;;;;;0.67;0.47;;;;;;;28.38;21.78;96022.31;5047972;28;20228;-64
2022/10/06 12:08:06;;;;;;;0.20;0.20;;;;;;;28.71;22.47;96017.53;5045375;28;20208;-64
2022/10/06 12:10:33;;;;;;;2.23;1.13;;;;;;;28.95;21.95;96020.13;5041147;28;20292;-64
2022/10/06 12:13:31;;;;;;;0.37;0.37;;;;;;;28.76;22.08;96019.19;5055473;28;21615;-64
2022/10/06 12:16:34;;;;;;;0.50;0.50;;;;;;;29.27;21.67;96012.13;5042698;28;20195;-64